createdAt,value
2018-07-27T00:02:27.967Z,49.60
2018-07-27T00:04:58.101Z,49.90
2018-07-27T00:07:28.234Z,50.20
2018-07-27T00:10:01.266Z,50.50
2018-07-27T00:12:31.395Z,50.70
2018-07-27T00:15:02.310Z,51.00
2018-07-27T00:17:32.406Z,51.40
2018-07-27T00:20:02.455Z,51.60
2018-07-27T00:22:32.603Z,51.80
2018-07-27T00:25:02.773Z,52.80
2018-07-27T00:27:32.843Z,52.60
2018-07-27T00:30:02.950Z,52.90
2018-07-27T00:32:32.977Z,53.00
2018-07-27T00:35:03.111Z,53.20
2018-07-27T00:37:33.289Z,53.40
2018-07-27T00:40:03.401Z,53.40
2018-07-27T00:42:33.490Z,53.40
2018-07-27T00:45:04.389Z,53.50
2018-07-27T00:47:34.567Z,53.50
2018-07-27T00:50:05.219Z,53.70
2018-07-27T00:52:35.294Z,53.90
2018-07-27T00:55:05.524Z,54.00
2018-07-27T00:57:35.615Z,54.10
2018-07-27T01:00:07.344Z,54.30
2018-07-27T01:02:37.445Z,54.30
2018-07-27T01:05:07.516Z,54.70
2018-07-27T01:07:37.605Z,55.40
2018-07-27T01:10:07.768Z,55.00
2018-07-27T01:12:37.963Z,55.20
2018-07-27T01:17:38.200Z,55.50
2018-07-27T01:20:09.275Z,55.60
2018-07-27T01:22:39.340Z,55.80
2018-07-27T01:25:09.418Z,55.90
2018-07-27T01:27:39.442Z,56.00
2018-07-27T01:30:09.563Z,56.20
2018-07-27T01:32:39.628Z,56.30
2018-07-27T01:35:13.719Z,56.50
2018-07-27T01:37:43.809Z,56.70
2018-07-27T01:40:13.973Z,57.20
2018-07-27T01:42:44.107Z,56.80
2018-07-27T01:45:14.234Z,56.90
2018-07-27T01:47:44.290Z,57.10
2018-07-27T01:50:14.456Z,57.30
2018-07-27T01:52:44.525Z,57.50
2018-07-27T01:55:14.602Z,57.70
2018-07-27T01:57:44.730Z,57.90
2018-07-27T02:00:15.094Z,58.60
2018-07-27T02:05:15.852Z,58.20
2018-07-27T02:07:45.944Z,58.40
2018-07-27T02:10:16.149Z,58.50
2018-07-27T02:12:46.312Z,59.10
2018-07-27T02:15:16.360Z,58.60
2018-07-27T02:17:46.440Z,58.40
2018-07-27T02:20:16.704Z,58.70
2018-07-27T02:22:46.699Z,58.60
2018-07-27T02:25:16.858Z,58.60
2018-07-27T02:27:47.088Z,58.70
2018-07-27T02:30:17.198Z,58.80
2018-07-27T02:32:47.321Z,58.70
2018-07-27T02:35:17.502Z,58.70
2018-07-27T02:37:47.540Z,58.90
2018-07-27T02:40:18.306Z,59.00
2018-07-27T02:42:48.462Z,58.90
2018-07-27T02:45:18.538Z,59.20
2018-07-27T02:47:50.001Z,59.30
2018-07-27T02:50:20.847Z,60.40
2018-07-27T02:52:50.922Z,59.80
2018-07-27T02:55:21.075Z,60.20
2018-07-27T02:57:51.092Z,60.60
2018-07-27T03:00:21.202Z,60.80
2018-07-27T03:02:51.316Z,61.20
2018-07-27T03:05:21.345Z,61.60
2018-07-27T03:07:51.413Z,61.90
2018-07-27T03:10:21.569Z,62.10
2018-07-27T03:12:51.752Z,62.20
2018-07-27T03:15:22.478Z,61.90
2018-07-27T03:17:52.689Z,61.70
2018-07-27T03:20:22.915Z,61.80
2018-07-27T03:22:53.044Z,61.80
2018-07-27T03:25:23.170Z,61.80
2018-07-27T03:27:53.356Z,61.50
2018-07-27T03:30:23.566Z,61.50
2018-07-27T03:32:53.586Z,61.40
2018-07-27T03:35:23.790Z,61.60
2018-07-27T03:37:54.800Z,61.70
2018-07-27T03:40:25.034Z,61.90
2018-07-27T03:42:55.252Z,62.10
2018-07-27T03:45:25.288Z,62.20
2018-07-27T03:47:55.364Z,62.50
2018-07-27T03:50:25.420Z,62.70
2018-07-27T03:52:55.526Z,62.90
2018-07-27T03:55:25.638Z,63.60
2018-07-27T03:57:55.760Z,63.90
2018-07-27T04:00:26.410Z,64.30
2018-07-27T04:02:56.504Z,64.50
2018-07-27T04:05:27.119Z,64.70
2018-07-27T04:07:57.609Z,65.00
2018-07-27T04:10:27.752Z,64.90
2018-07-27T04:12:57.888Z,65.20
2018-07-27T04:15:28.046Z,65.30
2018-07-27T04:18:00.558Z,65.60
2018-07-27T04:20:31.484Z,65.70
2018-07-27T04:23:01.656Z,65.70
2018-07-27T04:25:32.019Z,65.80
2018-07-27T04:28:02.292Z,65.70
2018-07-27T04:30:32.495Z,65.70
2018-07-27T04:33:02.610Z,65.70
2018-07-27T04:35:32.732Z,65.30
2018-07-27T04:38:02.889Z,65.00
2018-07-27T04:40:33.135Z,64.90
2018-07-27T04:43:03.230Z,64.70
2018-07-27T04:45:33.499Z,64.80
2018-07-27T04:48:03.599Z,64.70
2018-07-27T04:50:33.826Z,64.50
2018-07-27T04:53:03.914Z,64.20
2018-07-27T04:55:34.063Z,64.00
2018-07-27T04:58:04.225Z,63.80
2018-07-27T05:00:34.387Z,63.80
2018-07-27T05:03:04.463Z,63.60
2018-07-27T05:05:34.579Z,63.50
2018-07-27T05:08:04.649Z,63.30
2018-07-27T05:10:40.085Z,63.00
2018-07-27T05:13:10.267Z,62.90
2018-07-27T05:15:41.406Z,63.20
2018-07-27T05:18:11.554Z,63.40
2018-07-27T05:20:41.672Z,63.60
2018-07-27T05:23:11.784Z,63.90
2018-07-27T05:25:41.982Z,64.30
2018-07-27T05:28:12.031Z,64.50
2018-07-27T05:30:42.278Z,64.50
2018-07-27T05:33:12.373Z,64.50
2018-07-27T05:35:42.585Z,64.60
2018-07-27T05:38:12.677Z,64.50
2018-07-27T05:40:42.761Z,64.70
2018-07-27T05:43:13.003Z,64.60
2018-07-27T05:45:43.147Z,64.90
2018-07-27T05:48:14.172Z,64.90
2018-07-27T05:50:44.283Z,64.70
2018-07-27T05:53:14.605Z,64.20
2018-07-27T05:55:44.773Z,64.00
2018-07-27T05:58:14.877Z,63.60
2018-07-27T06:00:45.068Z,63.20
2018-07-27T06:03:15.196Z,62.60
2018-07-27T06:05:45.294Z,62.50
2018-07-27T06:08:15.410Z,61.80
2018-07-27T06:10:45.542Z,61.10
2018-07-27T06:13:16.379Z,61.00
2018-07-27T06:15:46.507Z,60.50
2018-07-27T06:18:16.696Z,60.30
2018-07-27T06:20:46.837Z,60.00
2018-07-27T06:23:16.943Z,59.80
2018-07-27T06:25:47.212Z,59.70
2018-07-27T06:28:17.299Z,59.40
2018-07-27T06:30:47.341Z,59.50
2018-07-27T06:33:17.565Z,59.30
2018-07-27T06:35:48.278Z,59.20
2018-07-27T06:38:18.340Z,59.30
2018-07-27T06:40:48.490Z,59.50
2018-07-27T06:43:18.639Z,59.40
2018-07-27T06:45:48.834Z,59.50
2018-07-27T06:48:20.046Z,59.30
2018-07-27T06:50:51.916Z,60.00
2018-07-27T06:53:22.116Z,59.60
2018-07-27T06:55:52.358Z,59.70
2018-07-27T06:58:22.462Z,59.80
2018-07-27T07:00:52.698Z,60.10
2018-07-27T07:03:22.916Z,60.20
2018-07-27T07:05:54.285Z,60.10
2018-07-27T07:08:24.355Z,59.60
2018-07-27T07:10:55.159Z,58.50
2018-07-27T07:13:25.997Z,57.80
2018-07-27T07:15:56.183Z,56.70
2018-07-27T07:18:27.423Z,57.50
2018-07-27T07:20:58.125Z,57.60
2018-07-27T07:23:28.419Z,57.50
2018-07-27T07:25:58.981Z,57.70
2018-07-27T07:28:29.784Z,58.00
2018-07-27T07:30:59.845Z,58.30
2018-07-27T07:33:29.974Z,58.40
2018-07-27T07:36:00.124Z,58.40
2018-07-27T07:38:30.204Z,58.70
2018-07-27T07:41:00.342Z,59.10
2018-07-27T07:43:30.553Z,59.40
2018-07-27T07:46:00.773Z,59.70
2018-07-27T07:48:30.826Z,60.20
2018-07-27T07:51:00.899Z,60.40
2018-07-27T07:53:30.940Z,60.00
2018-07-27T07:56:01.240Z,59.50
2018-07-27T07:58:31.563Z,58.90
2018-07-27T08:01:01.740Z,58.40
2018-07-27T08:03:31.906Z,58.30
2018-07-27T08:06:02.145Z,58.30
2018-07-27T08:08:32.367Z,58.20
2018-07-27T08:11:02.473Z,58.00
2018-07-27T08:13:32.564Z,57.30
2018-07-27T08:16:02.786Z,56.90
2018-07-27T08:18:32.838Z,56.80
2018-07-27T08:21:03.036Z,56.80
2018-07-27T08:23:33.130Z,56.70
2018-07-27T08:27:09.716Z,56.60
2018-07-27T08:29:42.129Z,56.30
2018-07-27T08:32:12.452Z,56.20
2018-07-27T08:34:43.080Z,56.20
2018-07-27T08:37:13.170Z,56.10
2018-07-27T08:39:43.783Z,55.60
2018-07-27T08:42:14.252Z,55.60
2018-07-27T08:44:44.445Z,55.60
2018-07-27T08:47:14.690Z,55.30
2018-07-27T08:49:44.805Z,55.20
2018-07-27T08:52:14.860Z,54.80
2018-07-27T08:54:44.924Z,54.80
2018-07-27T08:57:15.000Z,54.80
2018-07-27T08:59:45.046Z,54.70
2018-07-27T09:02:15.090Z,54.60
2018-07-27T09:04:45.118Z,54.70
2018-07-27T09:07:15.115Z,54.60
2018-07-27T09:09:45.122Z,54.80
2018-07-27T09:12:15.211Z,54.60
2018-07-27T09:14:45.294Z,53.80
2018-07-27T09:17:15.394Z,54.00
2018-07-27T09:19:45.518Z,53.80
2018-07-27T09:22:15.634Z,53.90
2018-07-27T09:24:45.898Z,53.00
2018-07-27T09:27:15.780Z,52.60
2018-07-27T09:29:45.858Z,52.30
2018-07-27T09:32:16.040Z,51.50
2018-07-27T09:34:46.153Z,50.70
2018-07-27T09:37:16.302Z,49.90
2018-07-27T09:39:46.503Z,49.00
2018-07-27T09:42:16.624Z,47.90
2018-07-27T09:44:46.700Z,47.00
2018-07-27T09:47:16.786Z,46.80
2018-07-27T09:49:46.891Z,46.60
2018-07-27T09:52:17.012Z,46.50
2018-07-27T09:54:46.985Z,46.50
2018-07-27T09:57:17.147Z,46.70
2018-07-27T09:59:47.129Z,46.60
2018-07-27T10:02:17.334Z,46.50
2018-07-27T10:04:47.543Z,46.10
2018-07-27T10:07:17.597Z,45.90
2018-07-27T10:09:47.623Z,44.70
2018-07-27T10:12:17.722Z,44.50
2018-07-27T10:14:47.723Z,44.70
2018-07-27T10:17:17.791Z,45.00
2018-07-27T10:19:47.933Z,44.00
2018-07-27T10:22:18.027Z,44.00
2018-07-27T10:24:48.194Z,43.40
2018-07-27T10:27:18.252Z,43.30
2018-07-27T10:29:48.293Z,43.00
2018-07-27T10:32:18.398Z,42.50
2018-07-27T10:34:48.524Z,42.40
2018-07-27T10:37:18.738Z,42.70
2018-07-27T10:39:48.916Z,41.50
2018-07-27T10:42:19.091Z,40.80
2018-07-27T10:44:49.307Z,41.00
2018-07-27T10:47:19.410Z,40.80
2018-07-27T10:49:49.696Z,40.30
2018-07-27T10:52:19.890Z,40.20
2018-07-27T10:54:50.057Z,40.30
2018-07-27T10:57:20.616Z,40.40
2018-07-27T10:59:50.693Z,40.60
2018-07-27T11:02:20.843Z,40.50
2018-07-27T11:04:50.925Z,40.60
2018-07-27T11:07:21.058Z,40.50
2018-07-27T11:09:51.307Z,40.50
2018-07-27T11:12:21.360Z,40.70
2018-07-27T11:14:51.456Z,41.00
2018-07-27T11:17:21.558Z,40.80
2018-07-27T11:19:52.149Z,40.80
2018-07-27T11:22:22.281Z,40.30
2018-07-27T11:24:52.536Z,40.00
2018-07-27T11:27:22.606Z,40.10
2018-07-27T11:29:52.812Z,40.50
2018-07-27T11:32:22.920Z,40.70
2018-07-27T11:34:52.990Z,40.90
2018-07-27T11:37:23.453Z,41.00
2018-07-27T11:39:53.965Z,40.90
2018-07-27T11:42:24.575Z,41.00
2018-07-27T11:44:54.694Z,41.10
2018-07-27T11:47:25.249Z,41.40
2018-07-27T11:50:07.776Z,41.20
2018-07-27T11:52:37.968Z,40.60
2018-07-27T11:55:08.189Z,43.80
2018-07-27T11:57:38.343Z,47.20
2018-07-27T12:00:08.641Z,49.70
2018-07-27T12:02:38.829Z,52.20
2018-07-27T12:05:09.590Z,54.80
2018-07-27T12:07:39.751Z,56.50
2018-07-27T12:10:09.955Z,55.80
2018-07-27T12:12:40.015Z,57.50
2018-07-27T12:15:10.432Z,57.70
2018-07-27T12:20:09.978Z,55.30
2018-07-27T12:22:40.733Z,52.00
2018-07-27T12:25:12.049Z,49.00
2018-07-27T12:27:42.284Z,46.40
2018-07-27T12:30:12.410Z,45.10
2018-07-27T12:32:43.757Z,43.70
2018-07-27T12:35:13.908Z,42.70
2018-07-27T12:40:14.303Z,39.30
2018-07-27T12:42:44.454Z,38.50
2018-07-27T12:45:14.409Z,37.80
2018-07-27T12:47:44.524Z,38.10
2018-07-27T12:50:14.599Z,38.70
2018-07-27T12:52:44.675Z,39.10
2018-07-27T12:55:14.821Z,39.10
2018-07-27T12:57:44.943Z,39.30
2018-07-27T13:00:15.208Z,39.00
2018-07-27T13:02:45.299Z,39.20
2018-07-27T13:05:15.604Z,39.30
2018-07-27T13:07:45.809Z,39.80
2018-07-27T13:10:15.923Z,40.10
2018-07-27T13:12:46.120Z,39.30
2018-07-27T13:15:16.355Z,39.60
2018-07-27T13:17:46.813Z,40.50
2018-07-27T13:20:16.932Z,41.60
2018-07-27T13:22:47.421Z,42.50
2018-07-27T13:25:17.475Z,42.90
2018-07-27T13:27:47.612Z,42.90
2018-07-27T13:30:17.845Z,43.40
2018-07-27T13:32:47.972Z,43.70
2018-07-27T13:35:18.828Z,44.20
2018-07-27T13:37:48.919Z,44.90
2018-07-27T13:40:19.019Z,44.00
2018-07-27T13:42:49.164Z,44.00
2018-07-27T13:45:19.284Z,43.70
2018-07-27T13:47:49.428Z,43.60
2018-07-27T13:50:19.632Z,43.60
2018-07-27T13:52:49.891Z,43.30
2018-07-27T13:55:19.959Z,43.20
2018-07-27T13:57:50.121Z,42.90
2018-07-27T14:00:20.280Z,42.50
2018-07-27T14:02:50.378Z,41.70
2018-07-27T14:05:20.632Z,40.20
2018-07-27T14:07:50.708Z,39.30
2018-07-27T14:10:20.933Z,38.60
2018-07-27T14:12:51.095Z,38.40
2018-07-27T14:15:21.196Z,38.60
2018-07-27T14:17:51.379Z,38.40
2018-07-27T14:20:21.504Z,38.30
2018-07-27T14:22:51.801Z,38.50
2018-07-27T14:25:22.394Z,38.60
2018-07-27T14:27:52.456Z,38.80
2018-07-27T14:30:22.528Z,37.40
2018-07-27T14:32:52.699Z,36.30
2018-07-27T14:35:23.350Z,35.70
2018-07-27T14:37:53.440Z,35.70
2018-07-27T14:40:23.534Z,35.00
2018-07-27T14:42:53.613Z,34.90
2018-07-27T14:45:23.743Z,34.20
2018-07-27T14:47:53.934Z,34.00
2018-07-27T14:50:24.128Z,33.70
2018-07-27T14:52:54.360Z,33.30
2018-07-27T14:55:24.528Z,32.30
2018-07-27T14:57:54.702Z,30.60
2018-07-27T15:00:24.846Z,30.10
2018-07-27T15:02:54.954Z,29.80
2018-07-27T15:05:25.053Z,29.80
2018-07-27T15:07:55.180Z,30.20
2018-07-27T15:10:25.293Z,30.70
2018-07-27T15:12:55.754Z,30.90
2018-07-27T15:15:25.872Z,31.50
2018-07-27T15:17:56.010Z,30.40
2018-07-27T15:20:26.676Z,29.10
2018-07-27T15:22:57.263Z,27.90
2018-07-27T15:25:27.873Z,26.50
2018-07-27T15:27:57.996Z,26.90
2018-07-27T15:30:28.422Z,24.50
2018-07-27T15:32:58.492Z,22.50
2018-07-27T15:35:28.630Z,21.10
2018-07-27T15:37:58.768Z,18.50
2018-07-27T15:40:28.908Z,16.10
2018-07-27T15:42:59.000Z,15.80
2018-07-27T15:45:29.149Z,16.10
2018-07-27T15:47:59.348Z,16.40
2018-07-27T15:50:29.475Z,17.80
2018-07-27T15:53:00.651Z,17.20
2018-07-27T15:55:31.353Z,16.40
2018-07-27T15:58:01.442Z,15.70
2018-07-27T16:00:31.572Z,14.80
2018-07-27T16:03:01.700Z,15.60
2018-07-27T16:05:32.851Z,16.60
2018-07-27T16:08:04.063Z,18.20
2018-07-27T16:10:34.207Z,19.30
2018-07-27T16:13:04.393Z,20.50
2018-07-27T16:15:34.491Z,21.80
2018-07-27T16:18:04.679Z,23.10
2018-07-27T16:20:34.849Z,23.40
2018-07-27T16:23:04.999Z,24.50
2018-07-27T16:25:35.357Z,25.00
2018-07-27T16:28:05.581Z,25.50
2018-07-27T16:30:37.173Z,25.10
2018-07-27T16:33:07.307Z,24.90
2018-07-27T16:35:37.513Z,26.20
2018-07-27T16:38:07.666Z,26.40
2018-07-27T16:40:37.879Z,27.00
2018-07-27T16:43:08.119Z,27.70
2018-07-27T16:45:38.187Z,28.30
2018-07-27T16:48:08.392Z,28.60
2018-07-27T16:50:38.516Z,28.90
2018-07-27T16:53:08.638Z,29.40
2018-07-27T16:55:40.319Z,29.80
2018-07-27T16:58:10.393Z,30.60
2018-07-27T17:00:40.722Z,30.30
2018-07-27T17:03:11.559Z,30.20
2018-07-27T17:05:41.659Z,30.40
2018-07-27T17:08:12.365Z,30.70
2018-07-27T17:10:42.590Z,31.00
2018-07-27T17:13:12.693Z,32.50
2018-07-27T17:15:42.869Z,31.00
2018-07-27T17:18:13.049Z,30.70
2018-07-27T17:20:43.169Z,30.30
2018-07-27T17:23:13.835Z,30.70
2018-07-27T17:25:44.650Z,30.50
2018-07-27T17:28:14.758Z,30.60
2018-07-27T17:30:44.957Z,30.40
2018-07-27T17:33:15.076Z,31.20
2018-07-27T17:35:45.257Z,31.90
2018-07-27T17:38:15.562Z,32.40
2018-07-27T17:40:46.334Z,32.90
2018-07-27T17:43:16.557Z,32.80
2018-07-27T17:45:47.452Z,33.10
2018-07-27T17:48:17.631Z,33.20
2018-07-27T17:50:47.803Z,34.00
2018-07-27T17:53:17.955Z,33.90
2018-07-27T17:55:49.004Z,34.50
2018-07-27T17:58:19.149Z,35.30
2018-07-27T18:00:49.267Z,36.50
2018-07-27T18:03:19.495Z,37.80
2018-07-27T18:05:49.636Z,38.40
2018-07-27T18:08:19.915Z,39.40
2018-07-27T18:10:50.088Z,40.00
2018-07-27T18:13:20.309Z,40.90
2018-07-27T18:15:50.442Z,42.00
2018-07-27T18:18:20.591Z,43.10
2018-07-27T18:20:50.757Z,44.00
2018-07-27T18:23:21.442Z,44.50
2018-07-27T18:25:51.592Z,45.10
2018-07-27T18:28:21.862Z,45.50
2018-07-27T18:30:52.092Z,45.80
2018-07-27T18:33:22.444Z,46.10
2018-07-27T18:35:52.915Z,46.30
2018-07-27T18:38:23.069Z,46.70
2018-07-27T18:40:54.230Z,46.80
2018-07-27T18:43:24.600Z,46.90
2018-07-27T18:45:54.731Z,47.20
2018-07-27T18:48:25.013Z,47.20
2018-07-27T18:50:55.160Z,47.40
2018-07-27T18:53:25.428Z,47.30
2018-07-27T18:55:55.604Z,47.30
2018-07-27T18:58:25.957Z,47.50
2018-07-27T19:00:56.196Z,47.40
2018-07-27T19:03:26.263Z,47.60
2018-07-27T19:05:56.400Z,47.70
2018-07-27T19:08:26.608Z,48.00
2018-07-27T19:10:56.740Z,48.00
2018-07-27T19:13:26.963Z,48.10
2018-07-27T19:15:57.261Z,48.30
2018-07-27T19:18:27.563Z,48.50
2018-07-27T19:20:57.631Z,48.60
2018-07-27T19:23:27.805Z,48.70
2018-07-27T19:25:57.867Z,48.90
2018-07-27T19:28:28.451Z,49.00
2018-07-27T19:30:58.516Z,49.00
2018-07-27T19:33:28.624Z,49.10
2018-07-27T19:35:58.779Z,49.30
2018-07-27T19:38:28.920Z,49.30
2018-07-27T19:40:59.002Z,49.60
2018-07-27T19:43:29.074Z,49.80
2018-07-27T19:45:59.229Z,50.00
2018-07-27T19:48:29.403Z,50.20
2018-07-27T19:50:59.525Z,50.20
2018-07-27T19:53:29.634Z,50.30
2018-07-27T19:56:00.491Z,50.50
2018-07-27T19:58:30.636Z,50.90
2018-07-27T20:01:00.862Z,51.10
2018-07-27T20:03:31.115Z,51.20
2018-07-27T20:06:01.221Z,51.10
2018-07-27T20:08:31.308Z,50.80
2018-07-27T20:11:01.475Z,51.10
2018-07-27T20:13:31.681Z,51.10
2018-07-27T20:16:01.900Z,51.50
2018-07-27T20:18:32.144Z,51.80
2018-07-27T20:21:02.337Z,51.90
2018-07-27T20:23:32.419Z,52.50
2018-07-27T20:26:03.068Z,52.20
2018-07-27T20:28:33.161Z,52.50
2018-07-27T20:31:03.219Z,52.80
2018-07-27T20:33:33.411Z,52.90
2018-07-27T20:36:03.585Z,53.20
2018-07-27T20:38:33.703Z,53.20
2018-07-27T20:41:03.755Z,52.90
2018-07-27T20:43:33.991Z,52.50
2018-07-27T20:46:04.120Z,52.80
2018-07-27T20:48:34.321Z,52.90
2018-07-27T20:51:04.452Z,53.30
2018-07-27T20:53:34.597Z,53.20
2018-07-27T20:56:04.698Z,53.40
2018-07-27T20:58:35.010Z,53.30
2018-07-27T21:01:05.250Z,53.30
2018-07-27T21:03:35.511Z,53.30
2018-07-27T21:06:05.902Z,53.40
2018-07-27T21:08:36.032Z,53.60
2018-07-27T21:11:06.095Z,53.60
2018-07-27T21:13:36.369Z,53.40
2018-07-27T21:16:06.569Z,53.30
2018-07-27T21:18:36.763Z,52.90
2018-07-27T21:21:07.623Z,52.50
2018-07-27T21:23:37.766Z,52.20
2018-07-27T21:26:08.314Z,52.20
2018-07-27T21:28:38.617Z,52.30
2018-07-27T21:31:08.758Z,52.30
2018-07-27T21:33:38.829Z,52.40
2018-07-27T21:36:09.455Z,52.30
2018-07-27T21:38:39.592Z,52.50
2018-07-27T21:41:09.723Z,52.40
2018-07-27T21:43:39.798Z,52.50
2018-07-27T21:46:10.037Z,52.90
2018-07-27T21:48:40.200Z,53.10
2018-07-27T21:51:10.300Z,53.40
2018-07-27T21:53:40.496Z,54.00
2018-07-27T21:56:10.570Z,53.80
2018-07-27T21:58:40.642Z,53.60
2018-07-27T22:01:10.776Z,53.90
2018-07-27T22:03:40.891Z,53.90
2018-07-27T22:06:10.987Z,54.30
2018-07-27T22:08:41.194Z,53.80
2018-07-27T22:11:11.321Z,53.50
2018-07-27T22:13:41.852Z,53.30
2018-07-27T22:16:12.275Z,53.50
2018-07-27T22:18:42.353Z,53.70
2018-07-27T22:21:12.436Z,53.90
2018-07-27T22:23:42.496Z,54.20
2018-07-27T22:26:12.641Z,54.20
2018-07-27T22:28:42.776Z,54.40
2018-07-27T22:31:13.008Z,54.60
2018-07-27T22:33:43.132Z,54.60
2018-07-27T22:36:13.902Z,54.70
2018-07-27T22:38:44.159Z,54.90
2018-07-27T22:41:14.363Z,55.00
2018-07-27T22:43:44.496Z,55.20
2018-07-27T22:46:14.740Z,55.40
2018-07-27T22:48:44.832Z,55.50
2018-07-27T22:51:14.902Z,55.50
2018-07-27T22:53:45.012Z,55.60
2018-07-27T22:56:15.187Z,55.70
2018-07-27T23:01:15.201Z,55.90
2018-07-27T23:03:45.853Z,56.00
2018-07-27T23:06:16.154Z,56.10
2018-07-27T23:08:46.348Z,56.40
2018-07-27T23:11:16.591Z,56.70
2018-07-27T23:13:46.773Z,57.10
2018-07-27T23:16:17.048Z,57.50
2018-07-27T23:18:47.792Z,58.00
2018-07-27T23:21:18.005Z,58.60
2018-07-27T23:23:48.145Z,59.20
2018-07-27T23:26:19.445Z,59.70
2018-07-27T23:28:50.417Z,60.10
2018-07-27T23:31:20.465Z,60.50
2018-07-27T23:33:50.600Z,60.80
2018-07-27T23:36:20.695Z,61.40
2018-07-27T23:38:50.838Z,61.80
2018-07-27T23:41:20.930Z,61.90
2018-07-27T23:43:51.173Z,62.10
2018-07-27T23:46:21.254Z,62.40
2018-07-27T23:48:51.400Z,62.40
2018-07-27T23:51:21.594Z,62.50
2018-07-27T23:53:51.709Z,63.40
2018-07-27T23:56:21.852Z,62.70
2018-07-27T23:58:52.545Z,62.50
